sensor_id;sensor_type;location;lat;lon;timestamp;pressure;altitude;pressure_sealevel;temperature;humidity
76108;BME280;64834;52.516;10.528;2023-03-31T00:01:10;99893.78;;;10.69;85.41
76108;BME280;64834;52.516;10.528;2023-03-31T00:03:35;99890.22;;;10.68;85.37
76108;BME280;64834;52.516;10.528;2023-03-31T00:06:03;99887.56;;;10.67;85.63
76108;BME280;64834;52.516;10.528;2023-03-31T00:08:30;99876.16;;;10.65;85.65
76108;BME280;64834;52.516;10.528;2023-03-31T00:11:00;99883.09;;;10.64;85.43
76108;BME280;64834;52.516;10.528;2023-03-31T00:13:27;99875.19;;;10.63;85.40
76108;BME280;64834;52.516;10.528;2023-03-31T00:16:06;99874.22;;;10.61;85.76
76108;BME280;64834;52.516;10.528;2023-03-31T00:18:32;99868.16;;;10.62;85.69
76108;BME280;64834;52.516;10.528;2023-03-31T00:21:05;99872.00;;;10.70;85.44
76108;BME280;64834;52.516;10.528;2023-03-31T00:23:31;99862.28;;;10.67;85.38
76108;BME280;64834;52.516;10.528;2023-03-31T00:25:56;99865.88;;;10.69;85.69
76108;BME280;64834;52.516;10.528;2023-03-31T00:28:22;99858.66;;;10.64;85.64
76108;BME280;64834;52.516;10.528;2023-03-31T00:30:47;99849.59;;;10.76;85.25
76108;BME280;64834;52.516;10.528;2023-03-31T00:33:13;99857.06;;;10.67;86.00
76108;BME280;64834;52.516;10.528;2023-03-31T00:35:38;99850.03;;;10.66;85.87
76108;BME280;64834;52.516;10.528;2023-03-31T00:38:04;99847.31;;;10.63;86.12
76108;BME280;64834;52.516;10.528;2023-03-31T00:40:30;99849.84;;;10.62;86.05
76108;BME280;64834;52.516;10.528;2023-03-31T00:42:55;99848.09;;;10.62;86.15
76108;BME280;64834;52.516;10.528;2023-03-31T00:45:24;99842.88;;;10.62;86.49
76108;BME280;64834;52.516;10.528;2023-03-31T00:48:02;99848.25;;;10.65;86.36
76108;BME280;64834;52.516;10.528;2023-03-31T00:50:33;99842.13;;;10.65;86.37
76108;BME280;64834;52.516;10.528;2023-03-31T00:53:05;99845.75;;;10.68;86.68
76108;BME280;64834;52.516;10.528;2023-03-31T00:55:39;99844.69;;;10.63;86.86
76108;BME280;64834;52.516;10.528;2023-03-31T00:58:06;99839.22;;;10.57;87.14
76108;BME280;64834;52.516;10.528;2023-03-31T01:00:32;99841.72;;;10.56;87.13
76108;BME280;64834;52.516;10.528;2023-03-31T01:03:00;99833.78;;;10.52;87.50
76108;BME280;64834;52.516;10.528;2023-03-31T01:08:03;99834.91;;;10.59;87.60
76108;BME280;64834;52.516;10.528;2023-03-31T01:10:29;99820.56;;;10.49;87.40
76108;BME280;64834;52.516;10.528;2023-03-31T01:12:57;99807.47;;;10.49;87.77
76108;BME280;64834;52.516;10.528;2023-03-31T01:15:23;99808.31;;;10.48;87.61
76108;BME280;64834;52.516;10.528;2023-03-31T01:17:48;99802.38;;;10.52;87.02
76108;BME280;64834;52.516;10.528;2023-03-31T01:23:06;99796.28;;;10.31;87.67
76108;BME280;64834;52.516;10.528;2023-03-31T01:33:59;99794.34;;;10.27;88.09
76108;BME280;64834;52.516;10.528;2023-03-31T01:37:14;99800.16;;;10.21;88.05
76108;BME280;64834;52.516;10.528;2023-03-31T01:40:06;99788.22;;;10.26;87.73
76108;BME280;64834;52.516;10.528;2023-03-31T01:47:51;99779.19;;;10.20;87.76
76108;BME280;64834;52.516;10.528;2023-03-31T01:50:34;99777.41;;;10.19;87.81
76108;BME280;64834;52.516;10.528;2023-03-31T01:53:07;99780.44;;;10.28;87.65
76108;BME280;64834;52.516;10.528;2023-03-31T01:55:41;99775.69;;;10.19;87.78
76108;BME280;64834;52.516;10.528;2023-03-31T01:58:23;99770.00;;;10.09;87.73
76108;BME280;64834;52.516;10.528;2023-03-31T02:01:07;99758.66;;;10.08;88.32
76108;BME280;64834;52.516;10.528;2023-03-31T02:03:37;99756.31;;;10.14;88.14
76108;BME280;64834;52.516;10.528;2023-03-31T02:06:09;99753.69;;;10.14;87.73
76108;BME280;64834;52.516;10.528;2023-03-31T02:08:48;99748.16;;;10.07;87.98
76108;BME280;64834;52.516;10.528;2023-03-31T02:11:18;99735.59;;;10.19;87.47
76108;BME280;64834;52.516;10.528;2023-03-31T02:13:45;99737.16;;;10.15;87.79
76108;BME280;64834;52.516;10.528;2023-03-31T02:16:15;99735.81;;;10.04;87.87
76108;BME280;64834;52.516;10.528;2023-03-31T02:18:45;99732.47;;;10.07;87.96
76108;BME280;64834;52.516;10.528;2023-03-31T02:21:13;99726.66;;;10.14;87.36
76108;BME280;64834;52.516;10.528;2023-03-31T02:23:41;99719.19;;;10.02;87.91
76108;BME280;64834;52.516;10.528;2023-03-31T02:26:14;99715.63;;;10.00;87.85
76108;BME280;64834;52.516;10.528;2023-03-31T02:28:41;99721.59;;;9.97;87.57
76108;BME280;64834;52.516;10.528;2023-03-31T02:31:27;99718.09;;;9.97;87.43
76108;BME280;64834;52.516;10.528;2023-03-31T02:33:54;99716.06;;;9.90;87.40
76108;BME280;64834;52.516;10.528;2023-03-31T02:36:22;99706.03;;;9.80;87.54
76108;BME280;64834;52.516;10.528;2023-03-31T02:38:58;99705.78;;;9.73;87.73
76108;BME280;64834;52.516;10.528;2023-03-31T02:41:26;99701.31;;;9.71;87.22
76108;BME280;64834;52.516;10.528;2023-03-31T02:43:51;99700.84;;;9.60;87.48
76108;BME280;64834;52.516;10.528;2023-03-31T02:46:17;99694.81;;;9.42;88.08
76108;BME280;64834;52.516;10.528;2023-03-31T02:48:46;99705.72;;;9.32;88.36
76108;BME280;64834;52.516;10.528;2023-03-31T02:51:50;99700.81;;;9.20;88.78
76108;BME280;64834;52.516;10.528;2023-03-31T02:57:27;99682.16;;;9.30;88.64
76108;BME280;64834;52.516;10.528;2023-03-31T03:00:02;99691.41;;;9.24;88.81
76108;BME280;64834;52.516;10.528;2023-03-31T03:02:44;99686.28;;;9.25;89.39
76108;BME280;64834;52.516;10.528;2023-03-31T03:05:38;99680.91;;;9.22;89.13
76108;BME280;64834;52.516;10.528;2023-03-31T03:13:45;99675.56;;;9.19;89.49
76108;BME280;64834;52.516;10.528;2023-03-31T03:16:18;99669.09;;;9.30;88.34
76108;BME280;64834;52.516;10.528;2023-03-31T03:18:55;99664.31;;;9.41;88.48
76108;BME280;64834;52.516;10.528;2023-03-31T03:21:21;99657.78;;;9.51;87.59
76108;BME280;64834;52.516;10.528;2023-03-31T03:23:46;99655.75;;;9.43;87.78
76108;BME280;64834;52.516;10.528;2023-03-31T03:26:12;99659.94;;;9.40;87.40
76108;BME280;64834;52.516;10.528;2023-03-31T03:28:37;99651.97;;;9.37;87.62
76108;BME280;64834;52.516;10.528;2023-03-31T03:31:02;99644.06;;;9.35;87.71
76108;BME280;64834;52.516;10.528;2023-03-31T03:33:28;99641.53;;;9.17;87.95
76108;BME280;64834;52.516;10.528;2023-03-31T03:35:53;99637.50;;;9.24;87.93
76108;BME280;64834;52.516;10.528;2023-03-31T03:38:18;99632.28;;;9.24;87.33
76108;BME280;64834;52.516;10.528;2023-03-31T03:40:44;99639.75;;;9.16;87.70
76108;BME280;64834;52.516;10.528;2023-03-31T03:43:09;99626.31;;;9.07;87.80
76108;BME280;64834;52.516;10.528;2023-03-31T03:45:34;99632.63;;;9.12;87.77
76108;BME280;64834;52.516;10.528;2023-03-31T03:48:00;99623.91;;;9.12;87.32
76108;BME280;64834;52.516;10.528;2023-03-31T03:50:25;99619.38;;;9.08;87.92
76108;BME280;64834;52.516;10.528;2023-03-31T03:52:50;99618.59;;;9.10;88.01
76108;BME280;64834;52.516;10.528;2023-03-31T03:55:16;99619.66;;;9.14;87.71
76108;BME280;64834;52.516;10.528;2023-03-31T03:57:41;99606.38;;;9.09;88.25
76108;BME280;64834;52.516;10.528;2023-03-31T04:00:07;99599.28;;;9.05;88.12
76108;BME280;64834;52.516;10.528;2023-03-31T04:02:36;99593.06;;;9.03;87.88
76108;BME280;64834;52.516;10.528;2023-03-31T04:05:02;99594.50;;;8.97;88.17
76108;BME280;64834;52.516;10.528;2023-03-31T04:07:27;99590.13;;;8.96;88.22
76108;BME280;64834;52.516;10.528;2023-03-31T04:09:53;99585.31;;;8.85;88.49
76108;BME280;64834;52.516;10.528;2023-03-31T04:12:18;99577.59;;;8.87;88.60
76108;BME280;64834;52.516;10.528;2023-03-31T04:14:43;99576.69;;;8.86;88.84
76108;BME280;64834;52.516;10.528;2023-03-31T04:17:09;99574.00;;;8.85;88.27
76108;BME280;64834;52.516;10.528;2023-03-31T04:19:34;99564.38;;;8.84;88.32
76108;BME280;64834;52.516;10.528;2023-03-31T04:22:00;99560.22;;;8.87;88.25
76108;BME280;64834;52.516;10.528;2023-03-31T04:24:27;99549.91;;;8.71;88.31
76108;BME280;64834;52.516;10.528;2023-03-31T04:26:57;99544.91;;;8.76;88.61
76108;BME280;64834;52.516;10.528;2023-03-31T04:29:23;99546.75;;;8.78;88.45
76108;BME280;64834;52.516;10.528;2023-03-31T04:31:51;99543.25;;;8.78;88.58
76108;BME280;64834;52.516;10.528;2023-03-31T04:34:18;99544.09;;;8.77;88.67
76108;BME280;64834;52.516;10.528;2023-03-31T04:36:45;99529.00;;;8.70;88.34
76108;BME280;64834;52.516;10.528;2023-03-31T04:39:15;99531.88;;;8.76;88.22
76108;BME280;64834;52.516;10.528;2023-03-31T04:41:41;99520.22;;;8.68;88.46
76108;BME280;64834;52.516;10.528;2023-03-31T04:44:06;99516.84;;;8.70;88.28
76108;BME280;64834;52.516;10.528;2023-03-31T04:46:32;99510.13;;;8.75;88.22
76108;BME280;64834;52.516;10.528;2023-03-31T04:48:58;99505.63;;;8.73;88.26
76108;BME280;64834;52.516;10.528;2023-03-31T04:51:25;99496.31;;;8.78;88.06
76108;BME280;64834;52.516;10.528;2023-03-31T04:53:50;99487.94;;;8.65;88.08
76108;BME280;64834;52.516;10.528;2023-03-31T04:56:15;99498.59;;;8.70;88.18
76108;BME280;64834;52.516;10.528;2023-03-31T04:58:41;99484.25;;;8.60;88.23
76108;BME280;64834;52.516;10.528;2023-03-31T05:01:06;99485.78;;;8.55;88.52
76108;BME280;64834;52.516;10.528;2023-03-31T05:03:32;99482.47;;;8.59;88.93
76108;BME280;64834;52.516;10.528;2023-03-31T05:05:57;99476.63;;;8.65;88.44
76108;BME280;64834;52.516;10.528;2023-03-31T05:08:22;99473.75;;;8.59;88.90
76108;BME280;64834;52.516;10.528;2023-03-31T05:10:48;99472.53;;;8.51;89.08
76108;BME280;64834;52.516;10.528;2023-03-31T05:13:13;99457.91;;;8.54;89.02
76108;BME280;64834;52.516;10.528;2023-03-31T05:15:39;99453.97;;;8.64;89.17
76108;BME280;64834;52.516;10.528;2023-03-31T05:18:05;99453.41;;;8.71;88.71
76108;BME280;64834;52.516;10.528;2023-03-31T05:20:30;99448.09;;;8.68;88.61
76108;BME280;64834;52.516;10.528;2023-03-31T05:22:56;99442.25;;;8.74;88.83
76108;BME280;64834;52.516;10.528;2023-03-31T05:25:21;99439.88;;;8.80;88.59
76108;BME280;64834;52.516;10.528;2023-03-31T05:27:47;99433.50;;;8.73;89.07
76108;BME280;64834;52.516;10.528;2023-03-31T05:30:14;99433.34;;;8.89;88.45
76108;BME280;64834;52.516;10.528;2023-03-31T05:32:39;99426.78;;;8.99;88.05
76108;BME280;64834;52.516;10.528;2023-03-31T05:35:06;99424.25;;;9.01;87.87
76108;BME280;64834;52.516;10.528;2023-03-31T05:37:32;99416.78;;;9.10;87.64
76108;BME280;64834;52.516;10.528;2023-03-31T05:39:57;99417.56;;;9.07;87.81
76108;BME280;64834;52.516;10.528;2023-03-31T05:42:23;99418.94;;;9.20;87.42
76108;BME280;64834;52.516;10.528;2023-03-31T05:44:48;99413.78;;;9.22;87.52
76108;BME280;64834;52.516;10.528;2023-03-31T05:47:14;99399.97;;;9.24;87.58
76108;BME280;64834;52.516;10.528;2023-03-31T05:49:39;99400.38;;;9.35;87.24
76108;BME280;64834;52.516;10.528;2023-03-31T05:52:06;99402.94;;;9.33;87.15
76108;BME280;64834;52.516;10.528;2023-03-31T05:54:31;99398.91;;;9.41;86.92
76108;BME280;64834;52.516;10.528;2023-03-31T05:56:57;99405.78;;;9.39;86.68
76108;BME280;64834;52.516;10.528;2023-03-31T05:59:22;99407.75;;;9.45;86.75
76108;BME280;64834;52.516;10.528;2023-03-31T06:01:48;99408.88;;;9.52;86.84
76108;BME280;64834;52.516;10.528;2023-03-31T06:04:13;99408.88;;;9.52;86.35
76108;BME280;64834;52.516;10.528;2023-03-31T06:06:38;99395.16;;;9.57;86.19
76108;BME280;64834;52.516;10.528;2023-03-31T06:09:04;99391.72;;;9.58;86.11
76108;BME280;64834;52.516;10.528;2023-03-31T06:11:30;99391.78;;;9.60;86.16
76108;BME280;64834;52.516;10.528;2023-03-31T06:13:56;99393.63;;;9.62;86.29
76108;BME280;64834;52.516;10.528;2023-03-31T06:16:21;99392.56;;;9.57;86.92
76108;BME280;64834;52.516;10.528;2023-03-31T06:18:46;99392.91;;;9.66;86.41
76108;BME280;64834;52.516;10.528;2023-03-31T06:21:14;99404.19;;;9.65;86.79
76108;BME280;64834;52.516;10.528;2023-03-31T06:23:41;99398.06;;;9.65;87.30
76108;BME280;64834;52.516;10.528;2023-03-31T06:26:11;99386.03;;;9.68;87.19
76108;BME280;64834;52.516;10.528;2023-03-31T06:28:37;99387.84;;;9.71;86.98
76108;BME280;64834;52.516;10.528;2023-03-31T06:31:05;99382.53;;;9.68;87.17
76108;BME280;64834;52.516;10.528;2023-03-31T06:33:31;99374.50;;;9.63;87.70
76108;BME280;64834;52.516;10.528;2023-03-31T06:35:57;99379.00;;;9.67;87.73
76108;BME280;64834;52.516;10.528;2023-03-31T06:38:23;99363.75;;;9.78;87.58
76108;BME280;64834;52.516;10.528;2023-03-31T06:40:49;99358.50;;;9.78;87.39
76108;BME280;64834;52.516;10.528;2023-03-31T06:43:14;99368.25;;;9.82;87.20
76108;BME280;64834;52.516;10.528;2023-03-31T06:45:39;99358.88;;;9.87;87.21
76108;BME280;64834;52.516;10.528;2023-03-31T06:48:05;99344.13;;;9.89;86.92
76108;BME280;64834;52.516;10.528;2023-03-31T06:50:30;99351.47;;;9.99;86.98
76108;BME280;64834;52.516;10.528;2023-03-31T06:52:56;99336.50;;;9.95;86.57
76108;BME280;64834;52.516;10.528;2023-03-31T06:55:21;99342.66;;;9.97;87.02
76108;BME280;64834;52.516;10.528;2023-03-31T06:57:46;99337.41;;;9.96;86.57
76108;BME280;64834;52.516;10.528;2023-03-31T07:00:12;99334.97;;;10.00;87.01
76108;BME280;64834;52.516;10.528;2023-03-31T07:02:37;99343.03;;;10.07;86.61
76108;BME280;64834;52.516;10.528;2023-03-31T07:05:03;99339.19;;;10.22;86.16
76108;BME280;64834;52.516;10.528;2023-03-31T07:07:32;99334.13;;;10.25;86.10
76108;BME280;64834;52.516;10.528;2023-03-31T07:09:57;99341.22;;;10.30;86.23
76108;BME280;64834;52.516;10.528;2023-03-31T07:12:23;99330.09;;;10.35;86.02
76108;BME280;64834;52.516;10.528;2023-03-31T07:14:48;99336.13;;;10.33;86.17
76108;BME280;64834;52.516;10.528;2023-03-31T07:17:14;99331.09;;;10.39;85.93
76108;BME280;64834;52.516;10.528;2023-03-31T07:19:39;99331.88;;;10.36;85.68
76108;BME280;64834;52.516;10.528;2023-03-31T07:22:05;99336.41;;;10.42;86.41
76108;BME280;64834;52.516;10.528;2023-03-31T07:24:31;99320.63;;;10.39;86.02
76108;BME280;64834;52.516;10.528;2023-03-31T07:26:56;99318.88;;;10.38;86.55
76108;BME280;64834;52.516;10.528;2023-03-31T07:29:21;99325.63;;;10.31;86.48
76108;BME280;64834;52.516;10.528;2023-03-31T07:31:47;99330.00;;;10.32;87.29
76108;BME280;64834;52.516;10.528;2023-03-31T07:34:12;99323.13;;;10.36;87.49
76108;BME280;64834;52.516;10.528;2023-03-31T07:36:38;99331.88;;;10.36;87.51
76108;BME280;64834;52.516;10.528;2023-03-31T07:39:05;99324.56;;;10.26;87.96
76108;BME280;64834;52.516;10.528;2023-03-31T07:41:30;99313.06;;;10.22;88.13
76108;BME280;64834;52.516;10.528;2023-03-31T07:43:56;99322.78;;;10.25;88.58
76108;BME280;64834;52.516;10.528;2023-03-31T07:46:24;99327.78;;;10.19;89.33
76108;BME280;64834;52.516;10.528;2023-03-31T07:48:51;99315.63;;;10.21;89.73
76108;BME280;64834;52.516;10.528;2023-03-31T07:51:19;99317.47;;;10.23;89.39
76108;BME280;64834;52.516;10.528;2023-03-31T07:53:45;99313.00;;;10.21;90.04
76108;BME280;64834;52.516;10.528;2023-03-31T07:56:11;99300.00;;;10.22;90.20
76108;BME280;64834;52.516;10.528;2023-03-31T07:58:37;99297.75;;;10.32;89.95
76108;BME280;64834;52.516;10.528;2023-03-31T08:01:02;99300.19;;;10.27;90.48
76108;BME280;64834;52.516;10.528;2023-03-31T08:03:27;99300.41;;;10.33;91.13
76108;BME280;64834;52.516;10.528;2023-03-31T08:05:53;99299.56;;;10.34;90.86
76108;BME280;64834;52.516;10.528;2023-03-31T08:08:19;99290.03;;;10.36;91.12
76108;BME280;64834;52.516;10.528;2023-03-31T08:10:46;99284.97;;;10.41;90.91
76108;BME280;64834;52.516;10.528;2023-03-31T08:13:12;99286.69;;;10.40;90.95
76108;BME280;64834;52.516;10.528;2023-03-31T08:15:37;99273.41;;;10.34;91.23
76108;BME280;64834;52.516;10.528;2023-03-31T08:18:03;99271.69;;;10.35;91.15
76108;BME280;64834;52.516;10.528;2023-03-31T08:20:29;99263.59;;;10.27;91.00
76108;BME280;64834;52.516;10.528;2023-03-31T08:22:54;99269.09;;;10.36;91.06
76108;BME280;64834;52.516;10.528;2023-03-31T08:25:20;99267.25;;;10.32;91.25
76108;BME280;64834;52.516;10.528;2023-03-31T08:27:45;99269.09;;;10.36;91.29
76108;BME280;64834;52.516;10.528;2023-03-31T08:30:15;99272.63;;;10.37;91.54
76108;BME280;64834;52.516;10.528;2023-03-31T08:32:41;99261.25;;;10.36;91.34
76108;BME280;64834;52.516;10.528;2023-03-31T08:35:06;99259.53;;;10.37;91.88
76108;BME280;64834;52.516;10.528;2023-03-31T08:37:32;99259.81;;;10.44;91.60
76108;BME280;64834;52.516;10.528;2023-03-31T08:39:58;99246.94;;;10.50;91.09
76108;BME280;64834;52.516;10.528;2023-03-31T08:42:40;99245.59;;;10.63;91.25
76108;BME280;64834;52.516;10.528;2023-03-31T08:45:33;99243.97;;;10.67;91.55
76108;BME280;64834;52.516;10.528;2023-03-31T08:50:44;99230.03;;;10.68;91.25
76108;BME280;64834;52.516;10.528;2023-03-31T08:53:26;99234.81;;;10.81;91.10
76108;BME280;64834;52.516;10.528;2023-03-31T08:55:54;99223.63;;;10.87;90.18
76108;BME280;64834;52.516;10.528;2023-03-31T08:58:42;99216.81;;;10.92;90.68
76108;BME280;64834;52.516;10.528;2023-03-31T09:06:49;99191.19;;;11.10;90.16
76108;BME280;64834;52.516;10.528;2023-03-31T09:09:38;99181.81;;;11.18;89.90
76108;BME280;64834;52.516;10.528;2023-03-31T09:12:21;99185.50;;;11.25;89.37
76108;BME280;64834;52.516;10.528;2023-03-31T09:15:00;99184.38;;;11.47;90.06
76108;BME280;64834;52.516;10.528;2023-03-31T09:17:32;99179.00;;;11.42;88.39
76108;BME280;64834;52.516;10.528;2023-03-31T09:20:04;99176.94;;;11.30;88.13
76108;BME280;64834;52.516;10.528;2023-03-31T09:22:38;99174.09;;;11.23;87.96
76108;BME280;64834;52.516;10.528;2023-03-31T09:25:25;99179.38;;;11.24;88.02
76108;BME280;64834;52.516;10.528;2023-03-31T09:27:56;99176.72;;;11.23;87.01
76108;BME280;64834;52.516;10.528;2023-03-31T09:30:26;99172.41;;;11.25;87.22
76108;BME280;64834;52.516;10.528;2023-03-31T09:33:02;99154.94;;;11.24;87.08
76108;BME280;64834;52.516;10.528;2023-03-31T09:35:29;99163.78;;;11.27;87.66
76108;BME280;64834;52.516;10.528;2023-03-31T09:37:58;99157.84;;;11.34;87.58
76108;BME280;64834;52.516;10.528;2023-03-31T09:40:25;99154.34;;;11.34;87.46
76108;BME280;64834;52.516;10.528;2023-03-31T09:42:58;99149.19;;;11.37;85.14
76108;BME280;64834;52.516;10.528;2023-03-31T09:45:24;99150.03;;;11.36;86.19
76108;BME280;64834;52.516;10.528;2023-03-31T09:47:51;99150.66;;;11.26;86.29
76108;BME280;64834;52.516;10.528;2023-03-31T09:50:19;99143.44;;;11.19;86.67
76108;BME280;64834;52.516;10.528;2023-03-31T09:52:49;99142.72;;;11.24;86.57
76108;BME280;64834;52.516;10.528;2023-03-31T09:55:25;99147.94;;;11.23;87.13
76108;BME280;64834;52.516;10.528;2023-03-31T09:57:52;99143.56;;;11.23;87.02
76108;BME280;64834;52.516;10.528;2023-03-31T10:00:21;99141.97;;;11.28;86.51
76108;BME280;64834;52.516;10.528;2023-03-31T10:02:49;99132.22;;;11.23;85.88
76108;BME280;64834;52.516;10.528;2023-03-31T10:05:36;99126.03;;;11.19;86.27
76108;BME280;64834;52.516;10.528;2023-03-31T10:08:32;99126.09;;;11.22;85.70
76108;BME280;64834;52.516;10.528;2023-03-31T10:13:37;99116.88;;;11.37;86.25
76108;BME280;64834;52.516;10.528;2023-03-31T10:16:06;99123.06;;;11.39;86.72
76108;BME280;64834;52.516;10.528;2023-03-31T10:18:41;99110.69;;;11.33;86.20
76108;BME280;64834;52.516;10.528;2023-03-31T10:21:27;99110.38;;;11.22;86.57
76108;BME280;64834;52.516;10.528;2023-03-31T10:23:59;99116.44;;;11.20;86.65
76108;BME280;64834;52.516;10.528;2023-03-31T10:26:26;99108.31;;;11.11;87.23
76108;BME280;64834;52.516;10.528;2023-03-31T10:28:53;99103.00;;;11.07;87.23
76108;BME280;64834;52.516;10.528;2023-03-31T10:31:23;99105.66;;;11.09;87.69
76108;BME280;64834;52.516;10.528;2023-03-31T10:33:50;99109.91;;;11.05;88.02
76108;BME280;64834;52.516;10.528;2023-03-31T10:36:22;99105.50;;;11.03;88.01
76108;BME280;64834;52.516;10.528;2023-03-31T10:38:50;99103.59;;;10.97;88.94
76108;BME280;64834;52.516;10.528;2023-03-31T10:41:19;99105.28;;;10.95;89.43
76108;BME280;64834;52.516;10.528;2023-03-31T10:43:57;99102.56;;;10.92;89.29
76108;BME280;64834;52.516;10.528;2023-03-31T10:46:46;99099.75;;;10.86;89.54
76108;BME280;64834;52.516;10.528;2023-03-31T10:49:24;99103.97;;;10.81;90.37
76108;BME280;64834;52.516;10.528;2023-03-31T10:54:18;99095.31;;;10.82;91.14
76108;BME280;64834;52.516;10.528;2023-03-31T10:56:46;99102.31;;;10.83;91.53
76108;BME280;64834;52.516;10.528;2023-03-31T10:59:37;99108.09;;;10.73;91.76
76108;BME280;64834;52.516;10.528;2023-03-31T11:02:40;99103.00;;;10.77;92.17
76108;BME280;64834;52.516;10.528;2023-03-31T11:05:21;99105.53;;;10.74;92.33
76108;BME280;64834;52.516;10.528;2023-03-31T11:09:09;99099.22;;;10.68;92.37
76108;BME280;64834;52.516;10.528;2023-03-31T11:11:07;99093.75;;;10.59;92.91
76108;BME280;64834;52.516;10.528;2023-03-31T11:14:21;99100.00;;;10.64;92.37
76108;BME280;64834;52.516;10.528;2023-03-31T11:17:00;99094.63;;;10.59;92.47
76108;BME280;64834;52.516;10.528;2023-03-31T11:19:34;99093.75;;;10.59;92.75
76108;BME280;64834;52.516;10.528;2023-03-31T11:22:30;99084.97;;;10.57;92.70
76108;BME280;64834;52.516;10.528;2023-03-31T11:25:19;99088.31;;;10.52;92.96
76108;BME280;64834;52.516;10.528;2023-03-31T11:28:00;99088.00;;;10.42;92.85
76108;BME280;64834;52.516;10.528;2023-03-31T11:30:31;99087.72;;;10.33;93.53
76108;BME280;64834;52.516;10.528;2023-03-31T11:33:17;99091.84;;;10.24;93.12
76108;BME280;64834;52.516;10.528;2023-03-31T11:36:31;99093.31;;;10.18;92.37
76108;BME280;64834;52.516;10.528;2023-03-31T11:41:35;99088.81;;;10.12;92.39
76108;BME280;64834;52.516;10.528;2023-03-31T11:44:04;99091.31;;;10.09;93.07
76108;BME280;64834;52.516;10.528;2023-03-31T11:46:50;99079.16;;;10.11;93.10
76108;BME280;64834;52.516;10.528;2023-03-31T11:49:21;99088.34;;;9.98;93.47
76108;BME280;64834;52.516;10.528;2023-03-31T11:51:57;99074.31;;;9.95;93.80
76108;BME280;64834;52.516;10.528;2023-03-31T11:54:39;99075.97;;;9.93;93.22
76108;BME280;64834;52.516;10.528;2023-03-31T11:57:20;99074.09;;;9.87;93.87
76108;BME280;64834;52.516;10.528;2023-03-31T11:59:53;99078.25;;;9.82;93.53
76108;BME280;64834;52.516;10.528;2023-03-31T12:02:43;99069.78;;;9.89;93.73
76108;BME280;64834;52.516;10.528;2023-03-31T12:05:11;99069.81;;;9.91;93.82
76108;BME280;64834;52.516;10.528;2023-03-31T12:07:44;99069.06;;;9.93;94.01
76108;BME280;64834;52.516;10.528;2023-03-31T12:10:14;99066.47;;;9.95;93.70
76108;BME280;64834;52.516;10.528;2023-03-31T12:12:47;99061.34;;;9.98;93.69
76108;BME280;64834;52.516;10.528;2023-03-31T12:15:39;99058.88;;;10.03;93.51
76108;BME280;64834;52.516;10.528;2023-03-31T12:20:59;99056.38;;;10.06;93.59
76108;BME280;64834;52.516;10.528;2023-03-31T12:23:29;99059.75;;;10.03;93.44
76108;BME280;64834;52.516;10.528;2023-03-31T12:28:25;99049.53;;;10.11;93.17
76108;BME280;64834;52.516;10.528;2023-03-31T12:30:53;99041.00;;;10.16;92.96
76108;BME280;64834;52.516;10.528;2023-03-31T12:41:57;99042.91;;;10.22;93.08
76108;BME280;64834;52.516;10.528;2023-03-31T12:47:23;99031.88;;;10.31;92.31
76108;BME280;64834;52.516;10.528;2023-03-31T12:50:01;99029.59;;;10.41;92.45
76108;BME280;64834;52.516;10.528;2023-03-31T12:53:03;99027.25;;;10.50;91.66
76108;BME280;64834;52.516;10.528;2023-03-31T12:55:32;99022.34;;;10.31;90.90
76108;BME280;64834;52.516;10.528;2023-03-31T13:03:35;99020.38;;;10.54;91.30
76108;BME280;64834;52.516;10.528;2023-03-31T13:06:02;99024.88;;;10.60;90.99
76108;BME280;64834;52.516;10.528;2023-03-31T13:08:48;99017.97;;;10.62;91.46
76108;BME280;64834;52.516;10.528;2023-03-31T13:11:14;99009.16;;;10.58;90.81
76108;BME280;64834;52.516;10.528;2023-03-31T13:14:18;99006.75;;;10.66;90.96
76108;BME280;64834;52.516;10.528;2023-03-31T13:16:44;99001.69;;;10.72;90.53
76108;BME280;64834;52.516;10.528;2023-03-31T13:19:12;99001.72;;;10.73;90.31
76108;BME280;64834;52.516;10.528;2023-03-31T13:21:56;98986.97;;;10.75;89.73
76108;BME280;64834;52.516;10.528;2023-03-31T13:24:23;98994.75;;;10.74;90.72
76108;BME280;64834;52.516;10.528;2023-03-31T13:26:49;98989.69;;;10.80;90.34
76108;BME280;64834;52.516;10.528;2023-03-31T13:34:27;98981.94;;;11.16;89.52
76108;BME280;64834;52.516;10.528;2023-03-31T13:37:02;98978.88;;;11.32;90.30
76108;BME280;64834;52.516;10.528;2023-03-31T13:45:03;98965.31;;;11.86;87.81
76108;BME280;64834;52.516;10.528;2023-03-31T13:50:22;98955.94;;;11.96;87.27
76108;BME280;64834;52.516;10.528;2023-03-31T13:53:34;98952.66;;;12.06;86.03
76108;BME280;64834;52.516;10.528;2023-03-31T14:04:47;98946.88;;;12.66;83.13
76108;BME280;64834;52.516;10.528;2023-03-31T14:07:20;98947.09;;;12.77;83.08
76108;BME280;64834;52.516;10.528;2023-03-31T14:09:51;98944.53;;;12.82;83.25
76108;BME280;64834;52.516;10.528;2023-03-31T14:12:19;98946.34;;;12.84;84.43
76108;BME280;64834;52.516;10.528;2023-03-31T14:14:46;98947.91;;;12.75;82.83
76108;BME280;64834;52.516;10.528;2023-03-31T14:17:11;98946.78;;;12.60;83.89
76108;BME280;64834;52.516;10.528;2023-03-31T14:20:05;98944.91;;;12.55;83.47
76108;BME280;64834;52.516;10.528;2023-03-31T14:23:28;98941.94;;;12.38;84.14
76108;BME280;64834;52.516;10.528;2023-03-31T14:25:37;98949.03;;;12.42;84.27
76108;BME280;64834;52.516;10.528;2023-03-31T14:31:24;98936.66;;;12.36;84.46
76108;BME280;64834;52.516;10.528;2023-03-31T14:34:35;98937.56;;;12.37;82.71
76108;BME280;64834;52.516;10.528;2023-03-31T14:36:56;98937.31;;;12.25;82.07
76108;BME280;64834;52.516;10.528;2023-03-31T14:39:40;98934.72;;;12.26;81.84
76108;BME280;64834;52.516;10.528;2023-03-31T14:42:12;98935.56;;;12.25;82.98
76108;BME280;64834;52.516;10.528;2023-03-31T14:44:38;98933.66;;;12.18;82.46